Time;durP1;ratioP1;P1;durP2;ratioP2;P2;SDS_P1;SDS_P2;PMS_P1;PMS_P2;Temp;Humidity;BMP_temperature;BMP_pressure;BME280_temperature;BME280_humidity;BME280_pressure;Samples;Min_cycle;Max_cycle;Signal;HPM_P1;HPM_P2
2023/07/21 00:00:35;;;;;;;5.95;4.82;;;13.60;99.90;;;;;;5051405;28;20140;-71
2023/07/21 00:03:01;;;;;;;6.32;5.35;;;13.50;99.90;;;;;;5050604;28;20047;-71
2023/07/21 00:05:27;;;;;;;6.55;4.85;;;13.50;99.90;;;;;;5051836;28;20120;-71
2023/07/21 00:07:52;;;;;;;6.55;4.93;;;13.50;99.90;;;;;;5051226;28;20045;-70
2023/07/21 00:10:18;;;;;;;8.32;5.57;;;13.50;99.90;;;;;;5052079;28;20041;-71
2023/07/21 00:12:47;;;;;;;7.80;5.32;;;13.40;99.90;;;;;;5051113;28;20082;-70
2023/07/21 00:15:16;;;;;;;6.85;5.30;;;13.50;99.90;;;;;;5051042;28;20116;-71
2023/07/21 00:17:48;;;;;;;6.47;5.30;;;13.40;99.90;;;;;;5051582;28;20451;-71
2023/07/21 00:20:20;;;;;;;8.32;5.28;;;13.50;99.90;;;;;;5051443;28;20044;-71
2023/07/21 00:22:46;;;;;;;7.03;5.28;;;13.50;99.90;;;;;;5051196;28;20048;-71
2023/07/21 00:25:12;;;;;;;9.00;5.55;;;13.40;99.90;;;;;;5050433;28;20048;-71
2023/07/21 00:27:38;;;;;;;6.38;4.80;;;13.50;99.90;;;;;;5051023;28;20132;-71
2023/07/21 00:30:07;;;;;;;6.07;4.80;;;13.50;99.90;;;;;;5051386;28;20048;-71
2023/07/21 00:32:37;;;;;;;6.78;5.10;;;13.50;99.90;;;;;;5051331;28;20127;-71
2023/07/21 00:35:06;;;;;;;6.32;5.07;;;13.60;99.90;;;;;;5052218;28;20049;-71
2023/07/21 00:37:32;;;;;;;6.43;5.28;;;13.60;99.90;;;;;;5050621;28;20045;-71
2023/07/21 00:40:04;;;;;;;8.40;5.75;;;13.60;99.90;;;;;;5050921;28;20452;-71
2023/07/21 00:42:31;;;;;;;9.15;5.57;;;13.60;99.90;;;;;;5052234;28;20052;-71
2023/07/21 00:44:57;;;;;;;6.70;5.20;;;13.60;99.90;;;;;;5050452;28;20044;-71
2023/07/21 00:47:27;;;;;;;7.25;5.28;;;13.60;99.90;;;;;;5050287;28;20051;-71
2023/07/21 00:49:53;;;;;;;7.10;5.30;;;13.60;99.90;;;;;;5051205;28;20068;-71
2023/07/21 00:52:23;;;;;;;7.45;5.35;;;13.60;99.90;;;;;;5050527;28;20044;-71
2023/07/21 00:54:49;;;;;;;7.18;5.07;;;13.50;99.90;;;;;;5051785;28;20480;-71
2023/07/21 00:57:16;;;;;;;7.53;5.38;;;13.50;99.90;;;;;;5049405;28;20443;-71
2023/07/21 00:59:41;;;;;;;5.95;4.85;;;13.50;99.90;;;;;;5048365;28;20484;-71
2023/07/21 01:02:07;;;;;;;6.10;4.72;;;13.40;99.90;;;;;;5053860;28;20052;-72
2023/07/21 01:04:34;;;;;;;6.28;5.15;;;13.40;99.90;;;;;;5048802;28;20045;-73
2023/07/21 01:07:05;;;;;;;7.97;5.28;;;13.30;99.90;;;;;;5054339;28;20052;-72
2023/07/21 01:09:35;;;;;;;7.25;4.85;;;13.30;99.90;;;;;;5046843;28;20404;-72
2023/07/21 01:12:01;;;;;;;6.47;4.90;;;13.30;99.90;;;;;;5054346;28;20053;-72
2023/07/21 01:14:30;;;;;;;7.75;5.60;;;13.20;99.90;;;;;;5054606;28;20535;-72
2023/07/21 01:16:59;;;;;;;7.00;5.20;;;13.10;99.90;;;;;;5055892;28;20106;-73
2023/07/21 01:19:26;;;;;;;8.00;5.90;;;13.10;99.90;;;;;;5054475;28;20045;-72
2023/07/21 01:22:00;;;;;;;7.80;5.32;;;13.10;99.90;;;;;;5053802;28;20037;-72
2023/07/21 01:24:37;;;;;;;6.97;5.35;;;13.00;99.90;;;;;;5054912;28;20049;-72
2023/07/21 01:27:05;;;;;;;8.75;6.25;;;13.00;99.90;;;;;;5055163;28;20159;-72
2023/07/21 01:29:43;;;;;;;7.55;5.38;;;12.90;99.90;;;;;;5055666;28;20059;-72
2023/07/21 01:32:12;;;;;;;7.93;5.63;;;12.90;99.90;;;;;;5055610;28;20045;-72
2023/07/21 01:34:39;;;;;;;6.57;5.15;;;12.80;99.90;;;;;;5053863;28;20040;-72
2023/07/21 01:37:08;;;;;;;6.53;5.07;;;12.80;99.90;;;;;;5055619;28;20045;-72
2023/07/21 01:39:38;;;;;;;6.70;4.95;;;12.70;99.90;;;;;;5053688;28;20045;-72
2023/07/21 01:42:05;;;;;;;7.45;5.15;;;12.70;99.90;;;;;;5055187;28;20049;-72
2023/07/21 01:44:31;;;;;;;7.72;5.13;;;12.70;99.90;;;;;;5054509;28;20053;-72
2023/07/21 01:46:57;;;;;;;8.27;5.75;;;12.70;99.90;;;;;;5054572;28;20080;-72
2023/07/21 01:49:26;;;;;;;6.75;5.20;;;12.70;99.90;;;;;;5054620;28;20538;-72
2023/07/21 01:51:56;;;;;;;7.55;5.88;;;12.70;99.90;;;;;;5053778;28;20045;-72
2023/07/21 01:54:28;;;;;;;8.93;5.75;;;12.70;99.90;;;;;;5054501;28;20053;-72
2023/07/21 01:57:03;;;;;;;8.05;5.38;;;12.70;99.90;;;;;;5053159;28;20088;-71
2023/07/21 01:59:29;;;;;;;8.52;5.25;;;12.70;99.90;;;;;;5055506;28;20369;-72
2023/07/21 02:01:56;;;;;;;7.60;5.55;;;12.60;99.90;;;;;;5053485;28;20037;-71
2023/07/21 02:04:22;;;;;;;9.68;5.80;;;12.60;99.90;;;;;;5053819;28;20045;-72
2023/07/21 02:06:49;;;;;;;8.85;5.47;;;12.60;99.90;;;;;;5053492;28;20049;-71
2023/07/21 02:09:19;;;;;;;6.28;5.03;;;12.60;99.90;;;;;;5052744;28;20066;-72
2023/07/21 02:11:45;;;;;;;8.30;5.20;;;12.60;99.90;;;;;;5052990;28;20057;-72
2023/07/21 02:14:11;;;;;;;9.30;6.38;;;12.50;99.90;;;;;;5054196;28;20462;-71
2023/07/21 02:16:37;;;;;;;8.88;6.22;;;12.50;99.90;;;;;;5052857;28;20072;-72
2023/07/21 02:19:05;;;;;;;9.85;6.20;;;12.50;99.90;;;;;;5054546;28;20396;-72
2023/07/21 02:21:32;;;;;;;9.90;6.55;;;12.50;99.90;;;;;;5053947;28;20400;-72
2023/07/21 02:23:58;;;;;;;8.68;6.30;;;12.50;99.90;;;;;;5054154;28;20037;-72
2023/07/21 02:26:23;;;;;;;10.50;6.10;;;12.50;99.90;;;;;;5053487;28;20407;-72
2023/07/21 02:28:49;;;;;;;10.68;6.75;;;12.50;99.90;;;;;;5053680;28;20045;-72
2023/07/21 02:31:15;;;;;;;10.48;6.03;;;12.50;99.90;;;;;;5053435;28;20090;-72
2023/07/21 02:33:40;;;;;;;8.85;5.57;;;12.40;99.90;;;;;;5053839;28;20037;-72
2023/07/21 02:36:09;;;;;;;10.00;6.20;;;12.40;99.90;;;;;;5054872;28;20405;-72
2023/07/21 02:38:34;;;;;;;8.82;6.18;;;12.40;99.90;;;;;;5053870;28;20404;-72
2023/07/21 02:41:04;;;;;;;7.55;5.53;;;12.40;99.90;;;;;;5053684;28;20465;-72
2023/07/21 02:43:31;;;;;;;9.70;5.85;;;12.40;99.90;;;;;;5054504;28;20095;-72
2023/07/21 02:45:57;;;;;;;9.15;5.97;;;12.30;99.90;;;;;;5054340;28;20124;-72
2023/07/21 02:48:23;;;;;;;7.95;5.97;;;12.40;99.90;;;;;;5054605;28;20579;-72
2023/07/21 02:50:51;;;;;;;9.63;5.72;;;12.30;99.90;;;;;;5053221;28;20044;-71
2023/07/21 02:53:18;;;;;;;8.25;5.70;;;12.30;99.90;;;;;;5054131;28;20037;-71
2023/07/21 02:55:44;;;;;;;8.82;5.93;;;12.30;99.90;;;;;;5053174;28;20057;-72
2023/07/21 02:58:12;;;;;;;8.25;5.80;;;12.40;99.90;;;;;;5054285;28;20032;-72
2023/07/21 03:00:39;;;;;;;8.63;5.75;;;12.40;99.90;;;;;;5052973;28;20049;-71
2023/07/21 03:03:06;;;;;;;8.38;6.38;;;12.40;99.90;;;;;;5052737;28;20063;-71
2023/07/21 03:05:33;;;;;;;8.45;6.20;;;12.50;99.90;;;;;;5053597;28;20049;-72
2023/07/21 03:07:59;;;;;;;8.02;6.18;;;12.30;99.90;;;;;;5054303;28;20041;-72
2023/07/21 03:10:25;;;;;;;9.40;6.30;;;12.30;99.90;;;;;;5054436;28;20037;-72
2023/07/21 03:12:52;;;;;;;8.13;5.90;;;12.30;99.90;;;;;;5053448;28;20348;-71
2023/07/21 03:15:17;;;;;;;11.77;5.80;;;12.30;99.90;;;;;;5053180;28;20037;-72
2023/07/21 03:17:43;;;;;;;8.10;5.70;;;12.30;99.90;;;;;;5052343;28;20037;-72
2023/07/21 03:20:14;;;;;;;9.20;5.70;;;12.20;99.90;;;;;;5052482;28;20447;-72
2023/07/21 03:22:44;;;;;;;8.10;5.53;;;12.20;99.90;;;;;;5053016;28;20398;-72
2023/07/21 03:25:11;;;;;;;8.70;5.88;;;12.20;99.90;;;;;;5053107;28;20094;-72
2023/07/21 03:27:38;;;;;;;8.80;6.00;;;12.20;99.90;;;;;;5051834;28;20049;-72
2023/07/21 03:30:05;;;;;;;11.43;5.70;;;12.20;99.90;;;;;;5052553;28;20053;-72
2023/07/21 03:32:31;;;;;;;7.80;5.65;;;12.20;99.90;;;;;;5054314;28;20128;-72
2023/07/21 03:34:57;;;;;;;8.77;5.78;;;12.20;99.90;;;;;;5053590;28;20127;-71
2023/07/21 03:37:26;;;;;;;8.65;5.55;;;12.20;99.90;;;;;;5054111;28;20071;-72
2023/07/21 03:39:52;;;;;;;9.00;5.70;;;12.10;99.90;;;;;;5053740;28;20377;-72
2023/07/21 03:42:18;;;;;;;8.93;5.97;;;12.10;99.90;;;;;;5053358;28;20090;-72
2023/07/21 03:44:48;;;;;;;7.28;5.30;;;12.10;99.90;;;;;;5051905;28;20467;-72
2023/07/21 03:47:17;;;;;;;7.90;5.63;;;12.00;99.90;;;;;;5052667;28;20114;-71
2023/07/21 03:49:46;;;;;;;8.80;5.55;;;12.00;99.90;;;;;;5051345;28;20405;-72
2023/07/21 03:52:18;;;;;;;8.13;5.40;;;11.90;99.90;;;;;;5052164;28;20049;-71
2023/07/21 03:54:43;;;;;;;9.50;5.55;;;11.90;99.90;;;;;;5051582;28;20052;-72
2023/07/21 03:57:12;;;;;;;7.85;5.40;;;12.00;99.90;;;;;;5051278;28;20044;-72
2023/07/21 03:59:41;;;;;;;9.63;5.78;;;12.00;99.90;;;;;;5053359;28;20045;-73
2023/07/21 04:02:07;;;;;;;8.05;5.03;;;12.10;99.90;;;;;;5052265;28;20511;-71
2023/07/21 04:04:34;;;;;;;8.43;5.82;;;12.20;99.90;;;;;;5051253;28;20037;-72
2023/07/21 04:07:01;;;;;;;9.80;6.07;;;12.10;99.90;;;;;;5051566;28;20162;-72
2023/07/21 04:09:28;;;;;;;8.98;5.32;;;12.20;99.90;;;;;;5051519;28;20055;-72
2023/07/21 04:11:54;;;;;;;8.80;5.90;;;12.20;99.90;;;;;;5050604;28;20509;-72
2023/07/21 04:14:19;;;;;;;8.85;5.63;;;12.20;99.90;;;;;;5052039;28;20055;-72
2023/07/21 04:16:45;;;;;;;10.00;5.72;;;12.20;99.90;;;;;;5050714;28;20102;-71
2023/07/21 04:19:11;;;;;;;10.27;6.20;;;12.30;99.90;;;;;;5051819;28;20040;-72
2023/07/21 04:21:37;;;;;;;8.25;6.03;;;12.20;99.90;;;;;;5053287;28;20477;-72
2023/07/21 04:24:03;;;;;;;7.40;5.82;;;12.30;99.90;;;;;;5050676;28;20121;-71
2023/07/21 04:26:28;;;;;;;8.23;5.60;;;12.30;99.90;;;;;;5051483;28;20480;-72
2023/07/21 04:28:54;;;;;;;10.45;5.55;;;12.30;99.90;;;;;;5050934;28;20481;-71
2023/07/21 04:31:22;;;;;;;9.32;5.78;;;12.40;99.90;;;;;;5052479;28;20037;-71
2023/07/21 04:33:51;;;;;;;7.55;5.30;;;12.40;99.90;;;;;;5051292;28;20396;-72
2023/07/21 04:36:16;;;;;;;8.75;5.70;;;12.40;99.90;;;;;;5051071;28;20040;-72
2023/07/21 04:38:42;;;;;;;8.82;6.18;;;12.50;99.90;;;;;;5049621;28;20083;-72
2023/07/21 04:41:08;;;;;;;10.95;5.43;;;12.50;99.90;;;;;;5051184;28;20045;-72
2023/07/21 04:43:36;;;;;;;8.45;5.45;;;12.60;99.90;;;;;;5051859;28;20064;-71
2023/07/21 04:46:05;;;;;;;8.85;5.75;;;12.60;99.90;;;;;;5051369;28;20483;-72
2023/07/21 04:48:30;;;;;;;8.63;5.80;;;12.60;99.90;;;;;;5052238;28;20040;-72
2023/07/21 04:50:57;;;;;;;9.20;5.38;;;12.70;99.90;;;;;;5051145;28;20040;-71
2023/07/21 04:53:25;;;;;;;9.77;5.65;;;12.70;99.90;;;;;;5051939;28;20049;-72
2023/07/21 04:55:58;;;;;;;11.23;5.22;;;12.70;99.90;;;;;;5050869;28;20405;-71
2023/07/21 04:58:24;;;;;;;7.53;5.50;;;12.70;99.90;;;;;;5051179;28;20548;-72
2023/07/21 05:00:51;;;;;;;8.20;5.05;;;12.70;99.90;;;;;;5050589;28;20073;-69
2023/07/21 05:03:20;;;;;;;8.00;5.30;;;12.80;99.90;;;;;;5049998;28;20049;-70
2023/07/21 05:05:49;;;;;;;9.60;5.50;;;12.80;99.90;;;;;;5048753;28;20122;-71
2023/07/21 05:08:15;;;;;;;8.45;5.55;;;12.80;99.90;;;;;;5049951;28;20065;-73
2023/07/21 05:10:41;;;;;;;10.57;5.65;;;12.90;99.90;;;;;;5051605;28;20492;-71
2023/07/21 05:13:08;;;;;;;8.38;4.85;;;12.90;99.90;;;;;;5051470;28;20049;-71
2023/07/21 05:15:37;;;;;;;8.65;4.95;;;12.90;99.90;;;;;;5050750;28;20093;-72
2023/07/21 05:18:03;;;;;;;7.65;5.05;;;13.00;99.90;;;;;;5051564;28;20045;-71
2023/07/21 05:20:29;;;;;;;9.02;5.40;;;13.10;99.90;;;;;;5049781;28;20045;-71
2023/07/21 05:22:54;;;;;;;9.40;5.20;;;13.10;99.90;;;;;;5051087;28;20463;-72
2023/07/21 05:25:20;;;;;;;10.50;5.55;;;13.20;99.90;;;;;;5052684;28;20048;-73
2023/07/21 05:27:49;;;;;;;7.55;5.30;;;13.40;99.90;;;;;;5050198;28;20435;-72
2023/07/21 05:30:15;;;;;;;8.70;5.18;;;13.50;99.90;;;;;;5051713;28;20033;-71
2023/07/21 05:32:41;;;;;;;13.68;6.10;;;13.60;99.90;;;;;;5052053;28;20056;-72
2023/07/21 05:35:13;;;;;;;9.35;5.25;;;13.60;99.90;;;;;;5043648;28;20037;-71
2023/07/21 05:37:39;;;;;;;10.05;5.00;;;13.80;99.90;;;;;;5050308;28;20128;-72
2023/07/21 05:40:06;;;;;;;9.23;5.72;;;13.90;99.90;;;;;;5048855;28;20128;-71
2023/07/21 05:42:35;;;;;;;9.52;5.30;;;13.90;99.90;;;;;;5046590;28;20396;-71
2023/07/21 05:45:02;;;;;;;10.13;5.45;;;14.10;99.90;;;;;;5044682;28;20460;-71
2023/07/21 05:47:28;;;;;;;6.05;4.28;;;14.20;99.90;;;;;;5049066;28;20140;-71
2023/07/21 05:50:00;;;;;;;9.68;5.13;;;14.30;99.90;;;;;;5051238;28;20124;-71
2023/07/21 05:52:28;;;;;;;9.00;5.45;;;14.50;99.90;;;;;;5055518;28;20094;-72
2023/07/21 05:54:57;;;;;;;9.88;5.55;;;14.70;99.90;;;;;;5047179;28;20502;-71
2023/07/21 05:57:23;;;;;;;8.57;5.45;;;14.90;99.90;;;;;;5041682;28;20045;-73
2023/07/21 05:59:49;;;;;;;8.80;5.00;;;15.10;99.90;;;;;;5049124;28;20045;-74
2023/07/21 06:02:15;;;;;;;10.02;5.28;;;15.40;99.90;;;;;;5047813;28;20064;-73
2023/07/21 06:04:42;;;;;;;6.82;4.55;;;15.60;99.90;;;;;;5047252;28;20049;-70
2023/07/21 06:07:08;;;;;;;11.18;4.90;;;15.90;99.90;;;;;;5043628;28;20043;-72
2023/07/21 06:09:34;;;;;;;8.27;4.88;;;16.10;99.90;;;;;;5051100;28;20052;-70
2023/07/21 06:12:00;;;;;;;11.05;5.93;;;16.30;99.90;;;;;;5055417;28;20456;-70
2023/07/21 06:14:25;;;;;;;7.15;4.63;;;16.40;99.90;;;;;;5053571;28;20045;-70
2023/07/21 06:16:51;;;;;;;6.55;4.25;;;16.50;99.90;;;;;;5051395;28;20930;-69
2023/07/21 06:19:17;;;;;;;6.38;4.00;;;16.70;99.90;;;;;;5054108;28;20548;-72
2023/07/21 06:21:43;;;;;;;7.68;4.05;;;16.80;99.90;;;;;;5052970;28;20045;-72
2023/07/21 06:24:11;;;;;;;5.70;3.78;;;16.90;99.90;;;;;;5054679;28;20048;-72
2023/07/21 06:26:38;;;;;;;6.60;4.20;;;17.00;99.90;;;;;;5054656;28;20045;-72
2023/07/21 06:29:03;;;;;;;5.25;3.97;;;17.20;99.90;;;;;;5054781;28;20535;-74
2023/07/21 06:31:29;;;;;;;6.35;4.10;;;17.30;99.90;;;;;;5052334;28;20049;-75
2023/07/21 06:33:55;;;;;;;6.30;4.15;;;17.30;99.90;;;;;;5054647;28;20049;-72
2023/07/21 06:36:20;;;;;;;5.82;4.00;;;17.30;99.90;;;;;;5054166;28;20080;-71
2023/07/21 06:38:46;;;;;;;7.63;4.15;;;17.30;99.90;;;;;;5052880;28;20449;-70
2023/07/21 06:41:15;;;;;;;5.85;3.85;;;17.40;99.90;;;;;;5054456;28;20094;-70
2023/07/21 06:43:41;;;;;;;6.35;3.75;;;17.40;99.90;;;;;;5053350;28;20473;-69
2023/07/21 06:46:08;;;;;;;5.85;3.80;;;17.50;99.90;;;;;;5052867;28;20049;-70
2023/07/21 06:48:33;;;;;;;4.90;3.85;;;17.60;99.90;;;;;;5053929;28;20049;-74
2023/07/21 06:50:59;;;;;;;5.70;3.90;;;17.70;99.90;;;;;;5053647;28;20041;-71
2023/07/21 06:53:25;;;;;;;6.50;4.28;;;18.00;99.90;;;;;;5053006;28;20397;-71
2023/07/21 06:55:51;;;;;;;7.40;3.97;;;18.10;99.90;;;;;;5052549;28;20119;-70
2023/07/21 06:58:17;;;;;;;6.35;3.63;;;18.20;99.90;;;;;;5049658;28;20464;-79
2023/07/21 07:00:43;;;;;;;6.18;4.55;;;18.30;99.90;;;;;;5052648;28;20084;-76
2023/07/21 07:03:09;;;;;;;8.18;5.10;;;18.30;99.90;;;;;;5050215;28;20075;-73
2023/07/21 07:05:35;;;;;;;6.35;4.38;;;18.30;99.90;;;;;;5052582;28;20045;-73
2023/07/21 07:08:01;;;;;;;6.03;4.10;;;18.40;99.90;;;;;;5045881;28;20044;-71
2023/07/21 07:10:26;;;;;;;6.53;3.97;;;18.60;99.90;;;;;;5047882;28;20041;-70
2023/07/21 07:12:52;;;;;;;7.00;3.15;;;18.70;99.90;;;;;;5052329;28;20406;-71
2023/07/21 07:15:18;;;;;;;5.75;2.95;;;18.80;99.90;;;;;;5053355;28;20044;-73
2023/07/21 07:17:43;;;;;;;5.70;3.28;;;19.00;99.90;;;;;;5053133;28;20080;-72
2023/07/21 07:20:11;;;;;;;5.60;2.88;;;19.20;99.90;;;;;;5050287;28;20150;-71
2023/07/21 07:22:37;;;;;;;4.45;3.45;;;19.40;99.90;;;;;;5051421;28;20079;-70
2023/07/21 07:25:04;;;;;;;3.72;2.22;;;19.60;99.90;;;;;;5052313;28;20789;-70
2023/07/21 07:27:34;;;;;;;3.35;1.50;;;19.80;99.90;;;;;;5049595;28;20097;-73
2023/07/21 07:29:59;;;;;;;2.40;1.60;;;20.00;99.90;;;;;;5050956;28;20041;-72
2023/07/21 07:32:25;;;;;;;3.50;1.80;;;20.40;99.90;;;;;;5049678;28;20056;-74
2023/07/21 07:34:55;;;;;;;3.03;1.80;;;20.40;99.90;;;;;;5050322;28;20855;-71
2023/07/21 07:37:22;;;;;;;3.10;1.83;;;20.40;99.90;;;;;;5053673;28;20036;-71
2023/07/21 07:39:55;;;;;;;4.05;2.13;;;20.10;99.90;;;;;;5051648;28;20068;-71
2023/07/21 07:42:24;;;;;;;2.72;2.00;;;19.80;99.90;;;;;;5052918;28;20541;-71
2023/07/21 07:44:55;;;;;;;3.45;2.17;;;19.60;99.90;;;;;;5051721;28;20053;-72
2023/07/21 07:47:20;;;;;;;4.25;2.05;;;19.80;99.90;;;;;;5051062;28;20473;-72
2023/07/21 07:49:46;;;;;;;5.53;2.72;;;20.80;99.90;;;;;;5051362;28;20102;-72
2023/07/21 07:52:12;;;;;;;4.22;2.22;;;21.80;99.90;;;;;;5050537;28;20057;-73
2023/07/21 07:54:37;;;;;;;4.15;1.90;;;22.10;99.90;;;;;;5049511;28;20485;-72
2023/07/21 07:57:07;;;;;;;4.47;1.92;;;21.90;99.90;;;;;;5052682;28;20132;-71
2023/07/21 07:59:36;;;;;;;3.55;2.30;;;21.40;99.90;;;;;;5051495;28;20041;-72
2023/07/21 08:02:01;;;;;;;3.60;2.30;;;20.90;99.90;;;;;;5051836;28;20484;-71
2023/07/21 08:04:27;;;;;;;4.90;2.50;;;20.60;99.90;;;;;;5052937;28;20136;-72
2023/07/21 08:06:53;;;;;;;4.72;2.67;;;20.50;99.90;;;;;;5050776;28;20131;-72
2023/07/21 08:09:19;;;;;;;4.78;3.08;;;20.30;99.90;;;;;;5050995;28;20570;-71
2023/07/21 08:11:44;;;;;;;5.63;3.67;;;20.10;99.90;;;;;;5050410;28;20045;-72
2023/07/21 08:14:10;;;;;;;4.93;3.58;;;20.10;99.90;;;;;;5051330;28;20481;-73
2023/07/21 08:16:38;;;;;;;3.80;2.83;;;20.00;99.90;;;;;;5050924;28;20059;-73
2023/07/21 08:19:04;;;;;;;4.72;2.85;;;20.20;99.90;;;;;;5051315;28;20089;-73
2023/07/21 08:21:29;;;;;;;3.67;2.08;;;20.40;99.90;;;;;;5051642;28;20471;-74
2023/07/21 08:23:57;;;;;;;2.97;2.00;;;20.50;99.90;;;;;;5051833;28;20166;-73
2023/07/21 08:26:23;;;;;;;3.38;1.92;;;20.40;99.90;;;;;;5052439;28;20581;-73
2023/07/21 08:28:52;;;;;;;4.75;2.00;;;20.40;99.90;;;;;;5049873;28;20040;-73
2023/07/21 08:31:19;;;;;;;4.38;2.42;;;20.20;99.90;;;;;;5030965;28;20611;-71
2023/07/21 08:33:44;;;;;;;4.38;2.78;;;20.00;99.90;;;;;;5036815;28;20392;-72
2023/07/21 08:36:10;;;;;;;3.50;2.38;;;19.80;99.90;;;;;;5048085;28;20041;-72
2023/07/21 08:38:38;;;;;;;3.85;2.85;;;19.70;99.90;;;;;;5049259;28;20400;-73
2023/07/21 08:41:06;;;;;;;3.85;2.55;;;19.70;99.90;;;;;;5048747;28;20047;-73
2023/07/21 08:43:32;;;;;;;5.47;2.30;;;19.60;99.90;;;;;;5048228;28;20429;-73
2023/07/21 08:46:00;;;;;;;3.78;2.63;;;19.50;99.90;;;;;;5031534;28;20076;-73
2023/07/21 08:48:28;;;;;;;4.75;2.90;;;19.60;99.90;;;;;;5045264;28;20063;-73
2023/07/21 08:50:55;;;;;;;3.80;2.65;;;19.50;99.90;;;;;;5040327;28;20053;-73
2023/07/21 08:53:24;;;;;;;3.72;2.58;;;19.40;99.90;;;;;;5032447;28;20049;-73
2023/07/21 08:56:01;;;;;;;4.22;2.80;;;19.30;99.90;;;;;;5048298;28;20052;-73
2023/07/21 08:58:28;;;;;;;5.28;3.50;;;19.30;99.90;;;;;;5039717;28;20544;-72
2023/07/21 09:00:55;;;;;;;5.38;3.40;;;19.40;99.90;;;;;;5051751;28;20048;-73
2023/07/21 09:03:21;;;;;;;5.18;2.63;;;19.40;99.90;;;;;;5052077;28;20033;-73
2023/07/21 09:05:48;;;;;;;4.78;2.38;;;19.50;99.90;;;;;;5049712;28;20056;-73
2023/07/21 09:08:22;;;;;;;6.55;2.80;;;19.60;99.90;;;;;;5050203;28;20561;-74
2023/07/21 09:10:48;;;;;;;3.38;2.33;;;19.70;99.90;;;;;;5051910;28;20396;-74
2023/07/21 09:13:18;;;;;;;3.17;2.40;;;19.70;99.90;;;;;;5050729;28;20052;-73
2023/07/21 09:15:54;;;;;;;4.30;2.83;;;19.70;99.90;;;;;;5050434;28;20170;-72
2023/07/21 09:18:25;;;;;;;4.28;2.97;;;19.80;99.90;;;;;;5051800;28;20040;-72
2023/07/21 09:20:50;;;;;;;6.05;3.42;;;19.80;99.90;;;;;;5051544;28;20075;-71
2023/07/21 09:23:20;;;;;;;6.18;3.60;;;19.50;99.90;;;;;;5053483;28;20461;-72
2023/07/21 09:25:57;;;;;;;5.85;3.42;;;19.50;99.90;;;;;;5054621;28;20519;-74
2023/07/21 09:28:43;;;;;;;4.70;3.20;;;19.40;99.90;;;;;;5055429;28;20080;-73
2023/07/21 09:31:09;;;;;;;5.13;3.65;;;19.40;99.90;;;;;;5054516;28;20047;-73
2023/07/21 09:33:39;;;;;;;6.15;3.67;;;19.30;99.90;;;;;;5054739;28;20045;-72
2023/07/21 09:36:07;;;;;;;6.85;3.95;;;19.30;99.90;;;;;;5055861;28;20045;-72
2023/07/21 09:38:50;;;;;;;4.70;3.28;;;19.40;99.90;;;;;;5054652;28;20539;-72
2023/07/21 09:41:24;;;;;;;5.60;3.63;;;19.70;99.90;;;;;;5054990;28;20072;-72
2023/07/21 09:43:51;;;;;;;5.80;3.70;;;19.90;99.90;;;;;;5055197;28;20037;-72
2023/07/21 09:46:17;;;;;;;5.80;3.10;;;20.10;99.90;;;;;;5053753;28;20056;-72
2023/07/21 09:48:44;;;;;;;4.97;3.45;;;20.10;99.90;;;;;;5054854;28;20033;-71
2023/07/21 09:51:10;;;;;;;5.57;3.10;;;20.10;99.90;;;;;;5054318;28;20037;-73
2023/07/21 09:53:41;;;;;;;4.32;2.53;;;20.10;99.90;;;;;;5052888;28;20549;-74
2023/07/21 09:56:08;;;;;;;4.15;2.65;;;20.10;99.90;;;;;;5055463;28;20033;-73
2023/07/21 09:58:59;;;;;;;3.92;2.30;;;20.20;99.90;;;;;;5054712;28;20085;-73
2023/07/21 10:01:26;;;;;;;4.43;2.15;;;20.10;99.90;;;;;;5054700;28;20044;-72
2023/07/21 10:03:52;;;;;;;4.55;2.60;;;20.30;99.90;;;;;;5053841;28;20049;-73
2023/07/21 10:06:19;;;;;;;5.28;2.58;;;20.30;99.90;;;;;;5055051;28;20378;-72
2023/07/21 10:08:46;;;;;;;6.05;2.40;;;20.50;99.90;;;;;;5053930;28;20044;-73
2023/07/21 10:11:13;;;;;;;4.07;2.20;;;20.70;99.90;;;;;;5053327;28;20053;-72
2023/07/21 10:13:44;;;;;;;4.95;2.22;;;20.80;99.90;;;;;;5053557;28;20084;-72
2023/07/21 10:16:16;;;;;;;4.95;2.60;;;20.70;99.90;;;;;;5036641;28;20389;-72
2023/07/21 10:19:05;;;;;;;5.13;2.60;;;20.60;99.90;;;;;;5053542;28;20091;-72
2023/07/21 10:21:46;;;;;;;3.45;2.22;;;20.40;99.90;;;;;;5054337;28;20045;-72
2023/07/21 10:24:22;;;;;;;3.63;2.10;;;20.40;99.90;;;;;;5053583;28;20114;-72
2023/07/21 10:26:52;;;;;;;;;;;20.40;99.90;;;;;;5049325;28;20400;-73
2023/07/21 10:29:18;;;;;;;4.70;2.50;;;20.10;99.90;;;;;;5052436;28;20050;-75
2023/07/21 10:31:55;;;;;;;3.83;2.60;;;19.90;99.90;;;;;;5052763;28;20565;-72
2023/07/21 10:34:25;;;;;;;3.30;2.10;;;19.80;99.90;;;;;;5052425;28;20060;-72
2023/07/21 10:36:51;;;;;;;3.50;2.10;;;19.90;99.90;;;;;;5061093;28;20226;-71
2023/07/21 10:39:31;;;;;;;3.95;2.10;;;20.00;99.90;;;;;;5055050;28;20075;-71
2023/07/21 10:41:59;;;;;;;4.00;2.28;;;20.20;99.90;;;;;;5054440;28;20128;-71
2023/07/21 10:44:41;;;;;;;3.75;1.98;;;20.30;99.90;;;;;;5052466;28;20489;-71
2023/07/21 10:47:12;;;;;;;4.43;2.50;;;20.50;99.90;;;;;;5054896;28;20037;-70
2023/07/21 10:49:41;;;;;;;4.30;2.65;;;20.60;99.90;;;;;;5051768;28;20439;-70
2023/07/21 10:52:07;;;;;;;4.93;2.00;;;20.70;99.60;;;;;;5052575;28;20092;-70
2023/07/21 10:54:36;;;;;;;6.30;2.25;;;20.60;99.90;;;;;;5053875;28;20045;-70
2023/07/21 10:57:08;;;;;;;6.78;2.30;;;20.50;99.90;;;;;;5052275;28;20056;-71
2023/07/21 10:59:35;;;;;;;5.30;2.20;;;20.10;99.90;;;;;;5053768;28;20068;-71
2023/07/21 11:02:03;;;;;;;6.07;3.22;;;19.90;99.90;;;;;;5053585;28;20512;-70
2023/07/21 11:04:30;;;;;;;3.92;1.92;;;19.70;99.90;;;;;;5052321;28;20053;-70
2023/07/21 11:07:03;;;;;;;4.82;2.15;;;19.40;99.90;;;;;;5051740;28;20476;-70
2023/07/21 11:09:33;;;;;;;7.35;2.20;;;19.20;99.90;;;;;;5052815;28;20511;-73
2023/07/21 11:12:00;;;;;;;4.07;2.22;;;19.20;99.90;;;;;;5053032;28;20053;-72
2023/07/21 11:14:29;;;;;;;7.05;2.35;;;19.60;99.90;;;;;;5052415;28;20048;-71
2023/07/21 11:17:00;;;;;;;6.32;2.80;;;19.90;99.90;;;;;;5052133;28;20045;-72
2023/07/21 11:19:31;;;;;;;5.13;2.70;;;20.20;99.90;;;;;;5052197;28;20056;-71
2023/07/21 11:21:57;;;;;;;6.07;2.53;;;20.30;99.90;;;;;;5053447;28;20045;-72
2023/07/21 11:24:25;;;;;;;5.40;2.40;;;20.50;99.90;;;;;;5053445;28;20501;-71
2023/07/21 11:26:55;;;;;;;5.07;2.00;;;20.50;99.90;;;;;;5052663;28;20037;-72
2023/07/21 11:29:21;;;;;;;4.30;2.40;;;20.40;99.90;;;;;;5053938;28;20045;-71
2023/07/21 11:31:47;;;;;;;5.75;2.92;;;20.30;99.90;;;;;;5051031;28;20049;-71
2023/07/21 11:34:20;;;;;;;6.15;2.70;;;20.00;99.90;;;;;;5050698;28;20397;-72
2023/07/21 11:36:48;;;;;;;5.95;2.17;;;20.00;99.90;;;;;;5052089;28;20070;-72
2023/07/21 11:39:21;;;;;;;5.60;2.50;;;19.90;99.90;;;;;;5051102;28;20187;-71
2023/07/21 11:41:52;;;;;;;6.45;2.33;;;19.80;99.90;;;;;;5051687;28;20041;-71
2023/07/21 11:44:21;;;;;;;5.32;2.47;;;19.70;99.90;;;;;;5052054;28;20578;-72
2023/07/21 11:47:10;;;;;;;4.70;2.63;;;19.60;99.90;;;;;;5050795;28;20088;-71
2023/07/21 11:49:41;;;;;;;5.30;2.80;;;19.50;99.90;;;;;;5052166;28;20485;-72
2023/07/21 11:52:24;;;;;;;7.57;2.47;;;19.20;99.90;;;;;;5052727;28;20048;-71
2023/07/21 11:54:50;;;;;;;6.43;2.45;;;19.00;99.90;;;;;;5050741;28;20130;-71
2023/07/21 11:57:19;;;;;;;3.97;2.50;;;18.60;99.90;;;;;;5051941;28;20041;-72
2023/07/21 11:59:45;;;;;;;4.20;2.28;;;18.40;99.90;;;;;;5030802;28;20099;-71
2023/07/21 12:02:14;;;;;;;6.13;2.30;;;18.20;99.90;;;;;;5031938;28;20139;-71
2023/07/21 12:04:39;;;;;;;5.43;2.67;;;18.00;99.90;;;;;;5031244;28;20052;-71
2023/07/21 12:07:08;;;;;;;4.30;2.47;;;17.90;99.90;;;;;;5032168;28;20045;-72
2023/07/21 12:09:35;;;;;;;5.38;2.75;;;17.70;99.90;;;;;;5047273;28;20507;-72
2023/07/21 12:12:00;;;;;;;6.50;2.78;;;17.70;99.90;;;;;;5051593;28;20132;-71
2023/07/21 12:14:26;;;;;;;4.57;2.88;;;17.60;99.90;;;;;;5050667;28;20520;-72
2023/07/21 12:16:55;;;;;;;5.43;2.80;;;17.70;99.90;;;;;;5051340;28;20072;-71
2023/07/21 12:19:24;;;;;;;5.40;2.88;;;17.80;99.90;;;;;;5051069;28;20055;-72
2023/07/21 12:21:51;;;;;;;5.68;3.20;;;17.90;99.90;;;;;;5051906;28;20049;-71
2023/07/21 12:24:18;;;;;;;5.18;3.08;;;18.00;99.90;;;;;;5053047;28;20052;-71
2023/07/21 12:26:47;;;;;;;5.88;2.70;;;18.10;99.90;;;;;;5051308;28;20056;-72
2023/07/21 12:29:13;;;;;;;4.72;3.00;;;18.10;99.90;;;;;;5051942;28;20455;-72
2023/07/21 12:31:39;;;;;;;4.88;3.05;;;18.00;99.90;;;;;;5050464;28;20083;-71
2023/07/21 12:34:05;;;;;;;5.00;2.88;;;17.90;99.90;;;;;;5051258;28;20049;-71
2023/07/21 12:36:30;;;;;;;5.78;3.15;;;17.80;99.90;;;;;;5051707;28;20124;-71
2023/07/21 12:38:57;;;;;;;4.55;3.20;;;17.60;99.90;;;;;;5051309;28;20052;-72
2023/07/21 12:41:22;;;;;;;4.90;3.15;;;17.50;99.90;;;;;;5052274;28;20033;-71
2023/07/21 12:43:48;;;;;;;5.35;3.13;;;17.50;99.90;;;;;;5051332;28;20122;-71
2023/07/21 12:46:14;;;;;;;4.60;2.90;;;17.50;99.90;;;;;;5051382;28;20049;-71
2023/07/21 12:48:41;;;;;;;4.22;2.63;;;17.50;99.90;;;;;;5051703;28;20047;-71